createdAt,value
2018-09-24T00:00:37.770Z,9.00
2018-09-24T00:03:06.290Z,8.90
2018-09-24T00:15:26.779Z,8.80
2018-09-24T00:22:53.699Z,8.80
2018-09-24T00:32:47.535Z,8.60
2018-09-24T00:35:15.761Z,8.60
2018-09-24T00:37:44.995Z,8.60
2018-09-24T00:42:43.913Z,8.50
2018-09-24T00:45:12.200Z,8.50
2018-09-24T00:47:40.391Z,8.50
2018-09-24T00:50:09.278Z,8.50
2018-09-24T01:02:30.271Z,8.40
2018-09-24T01:04:59.014Z,8.40
2018-09-24T01:17:21.832Z,8.40
2018-09-24T01:19:50.024Z,8.40
2018-09-24T01:22:18.260Z,8.40
2018-09-24T01:32:16.155Z,8.30
2018-09-24T01:34:44.351Z,8.30
2018-09-24T01:37:12.541Z,8.30
2018-09-24T01:44:38.747Z,8.30
2018-09-24T01:59:28.539Z,8.20
2018-09-24T02:01:58.267Z,8.20
2018-09-24T02:04:26.512Z,8.20
2018-09-24T02:09:32.200Z,8.20
2018-09-24T02:21:56.161Z,8.20
2018-09-24T02:24:26.267Z,8.20
2018-09-24T02:26:56.023Z,8.10
2018-09-24T02:29:25.522Z,8.10
2018-09-24T02:34:27.996Z,8.00
2018-09-24T02:36:57.151Z,7.90
2018-09-24T02:39:25.312Z,7.90
2018-09-24T02:44:23.789Z,7.80
2018-09-24T02:46:52.319Z,7.80
2018-09-24T02:59:19.662Z,7.50
2018-09-24T03:01:48.870Z,7.50
2018-09-24T03:06:46.058Z,7.40
2018-09-24T03:11:44.236Z,7.40
2018-09-24T03:26:41.079Z,7.30
2018-09-24T03:29:16.340Z,7.30
2018-09-24T03:31:45.715Z,7.30
2018-09-24T03:36:43.242Z,7.30
2018-09-24T03:41:40.534Z,7.30
2018-09-24T03:44:10.388Z,7.30
2018-09-24T03:46:39.947Z,7.40
2018-09-24T03:49:10.317Z,7.40
2018-09-24T03:51:39.173Z,7.50
2018-09-24T03:56:38.276Z,7.60
2018-09-24T03:59:07.557Z,7.70
2018-09-24T04:01:37.939Z,7.70
2018-09-24T04:04:11.455Z,7.70
2018-09-24T04:06:44.993Z,7.70
2018-09-24T04:09:18.871Z,7.70
2018-09-24T04:29:54.648Z,7.70
2018-09-24T04:32:30.358Z,7.80
2018-09-24T04:37:38.016Z,7.80
2018-09-24T04:40:12.835Z,7.80
2018-09-24T04:42:51.428Z,7.70
2018-09-24T04:45:27.244Z,7.60
2018-09-24T04:48:01.921Z,7.60
2018-09-24T04:50:35.509Z,7.60
2018-09-24T04:58:18.471Z,7.40
2018-09-24T05:00:54.012Z,7.40
2018-09-24T05:06:03.168Z,7.40
2018-09-24T05:08:37.595Z,7.40
2018-09-24T05:11:12.649Z,7.30
2018-09-24T05:13:48.323Z,7.20
2018-09-24T05:18:57.607Z,7.10
2018-09-24T05:21:32.180Z,7.10
2018-09-24T05:24:06.349Z,7.00
2018-09-24T05:26:40.978Z,7.00
2018-09-24T05:29:16.397Z,7.00
2018-09-24T05:37:00.185Z,6.90
2018-09-24T05:39:35.439Z,6.90
2018-09-24T05:42:11.159Z,7.00
2018-09-24T05:47:19.532Z,7.10
2018-09-24T05:55:05.199Z,7.20
2018-09-24T06:00:13.045Z,7.10
2018-09-24T06:02:49.248Z,7.10
2018-09-24T06:05:22.752Z,7.10
2018-09-24T06:07:57.380Z,7.20
2018-09-24T06:10:31.248Z,7.30
2018-09-24T06:13:05.923Z,7.30
2018-09-24T06:25:53.685Z,7.70
2018-09-24T06:31:01.681Z,7.80
2018-09-24T06:38:43.220Z,7.90
2018-09-24T06:48:57.105Z,8.20
2018-09-24T06:54:03.951Z,8.20
2018-09-24T07:06:51.443Z,8.70
2018-09-24T07:14:31.759Z,8.90
2018-09-24T07:17:05.442Z,9.00
2018-09-24T07:19:38.943Z,9.20
2018-09-24T07:22:12.526Z,9.10
2018-09-24T07:24:46.058Z,9.00
2018-09-24T07:27:19.594Z,9.00
2018-09-24T07:29:53.284Z,9.10
2018-09-24T07:32:26.801Z,9.10
2018-09-24T07:35:00.368Z,9.20
2018-09-24T07:40:07.328Z,9.40
2018-09-24T07:47:47.706Z,9.10
2018-09-24T07:55:28.048Z,9.10
2018-09-24T07:58:01.534Z,9.10
2018-09-24T08:00:35.043Z,9.10
2018-09-24T08:03:08.542Z,9.20
2018-09-24T08:05:42.079Z,9.30
2018-09-24T08:08:15.655Z,9.40
2018-09-24T08:10:49.161Z,9.60
2018-09-24T08:13:22.899Z,9.70
2018-09-24T08:18:29.870Z,9.70
2018-09-24T08:21:03.399Z,9.80
2018-09-24T08:26:10.300Z,9.80
2018-09-24T08:28:48.597Z,9.70
2018-09-24T08:31:22.162Z,9.70
2018-09-24T08:33:55.763Z,9.80
2018-09-24T08:36:29.336Z,10.00
2018-09-24T08:41:36.184Z,10.10
2018-09-24T08:44:09.700Z,10.10
2018-09-24T08:46:43.191Z,10.00
2018-09-24T08:51:50.259Z,10.00
2018-09-24T08:54:23.833Z,10.20
2018-09-24T08:56:57.496Z,10.30
2018-09-24T08:59:31.071Z,10.30
2018-09-24T09:02:04.474Z,10.30
2018-09-24T09:04:38.054Z,10.40
2018-09-24T09:07:11.598Z,10.60
2018-09-24T09:14:52.275Z,10.70
2018-09-24T09:17:25.915Z,10.70
2018-09-24T09:25:06.475Z,10.40
2018-09-24T09:27:40.007Z,10.50
2018-09-24T09:32:47.026Z,10.50
2018-09-24T09:35:20.681Z,10.60
2018-09-24T09:37:54.102Z,10.60
2018-09-24T09:40:27.686Z,10.80
2018-09-24T09:43:01.239Z,10.90
2018-09-24T09:45:34.787Z,11.00
2018-09-24T09:53:15.834Z,11.10
2018-09-24T09:55:49.368Z,11.20
2018-09-24T10:00:56.390Z,11.50
2018-09-24T10:03:30.123Z,11.70
2018-09-24T10:06:03.683Z,11.70
2018-09-24T10:08:37.182Z,11.50
2018-09-24T10:11:10.755Z,11.40
2018-09-24T10:13:44.307Z,11.50
2018-09-24T10:18:51.381Z,11.50
2018-09-24T10:23:58.352Z,11.60
2018-09-24T10:26:31.805Z,11.70
2018-09-24T10:29:05.432Z,11.80
2018-09-24T10:31:38.999Z,11.80
2018-09-24T10:34:12.686Z,12.00
2018-09-24T10:36:46.269Z,12.10
2018-09-24T10:39:19.902Z,11.90
2018-09-24T10:49:33.758Z,11.70
2018-09-24T10:52:07.230Z,11.90
2018-09-24T10:59:47.823Z,12.30
2018-09-24T11:04:55.014Z,12.10
2018-09-24T11:07:28.515Z,12.00
2018-09-24T11:10:02.056Z,12.10
2018-09-24T11:12:35.536Z,12.30
2018-09-24T11:15:09.173Z,12.30
2018-09-24T11:17:42.943Z,12.20
2018-09-24T11:20:16.264Z,12.10
2018-09-24T11:22:49.782Z,12.20
2018-09-24T11:30:30.243Z,12.30
2018-09-24T11:35:37.106Z,12.10
2018-09-24T11:38:10.863Z,12.10
2018-09-24T11:40:44.410Z,12.10
2018-09-24T11:43:18.042Z,12.20
2018-09-24T11:45:51.578Z,12.30
2018-09-24T11:53:32.166Z,12.20
2018-09-24T11:56:05.782Z,12.20
2018-09-24T12:01:12.972Z,12.10
2018-09-24T12:06:20.753Z,12.20
2018-09-24T12:11:27.739Z,12.50
2018-09-24T12:14:01.325Z,12.80
2018-09-24T12:21:41.863Z,12.80
2018-09-24T12:24:15.392Z,12.70
2018-09-24T12:29:22.512Z,12.60
2018-09-24T12:31:56.011Z,12.70
2018-09-24T12:34:29.571Z,12.70
2018-09-24T12:39:36.755Z,12.50
2018-09-24T12:44:43.759Z,12.40
2018-09-24T12:47:17.329Z,12.50
2018-09-24T12:49:50.852Z,12.60
2018-09-24T12:52:24.494Z,12.80
2018-09-24T12:54:58.063Z,12.90
2018-09-24T12:57:31.522Z,13.10
2018-09-24T13:00:05.144Z,12.90
2018-09-24T13:02:38.727Z,12.70
2018-09-24T13:05:12.282Z,12.50
2018-09-24T13:07:45.838Z,12.60
2018-09-24T13:10:19.338Z,12.80
2018-09-24T13:12:52.943Z,12.80
2018-09-24T13:18:00.043Z,13.30
2018-09-24T13:20:33.631Z,13.10
2018-09-24T13:23:07.259Z,13.20
2018-09-24T13:28:14.283Z,13.40
2018-09-24T13:30:47.797Z,13.40
2018-09-24T13:33:21.271Z,13.50
2018-09-24T13:35:54.759Z,13.60
2018-09-24T13:38:28.319Z,13.50
2018-09-24T13:41:01.811Z,13.50
2018-09-24T13:43:35.440Z,13.40
2018-09-24T13:46:08.926Z,13.20
2018-09-24T13:51:15.769Z,12.90
2018-09-24T13:53:49.251Z,12.80
2018-09-24T13:58:56.304Z,12.70
2018-09-24T14:01:29.955Z,12.70
2018-09-24T14:09:12.751Z,12.90
2018-09-24T14:11:46.266Z,13.00
2018-09-24T14:14:19.871Z,13.20
2018-09-24T14:16:53.403Z,13.20
2018-09-24T14:19:26.906Z,13.20
2018-09-24T14:24:33.954Z,13.00
2018-09-24T14:27:07.571Z,12.80
2018-09-24T14:29:41.163Z,12.70
2018-09-24T14:32:14.679Z,12.60
2018-09-24T14:34:48.195Z,12.60
2018-09-24T14:39:55.156Z,12.50
2018-09-24T14:42:28.661Z,12.50
2018-09-24T14:47:35.579Z,12.50
2018-09-24T14:50:09.249Z,12.60
2018-09-24T14:57:49.928Z,12.80
2018-09-24T15:02:56.920Z,13.00
2018-09-24T15:05:30.562Z,13.10
2018-09-24T15:08:04.099Z,13.10
2018-09-24T15:10:37.790Z,13.00
2018-09-24T15:13:11.286Z,13.00
2018-09-24T15:15:44.818Z,13.00
2018-09-24T15:20:51.908Z,12.80
2018-09-24T15:23:25.505Z,12.80
2018-09-24T15:25:59.050Z,12.80
2018-09-24T15:28:32.613Z,12.80
2018-09-24T15:31:06.106Z,12.80
2018-09-24T15:33:39.622Z,12.80
2018-09-24T15:36:13.239Z,12.70
2018-09-24T15:38:46.775Z,12.80
2018-09-24T15:41:20.338Z,12.90
2018-09-24T15:43:53.842Z,13.00
2018-09-24T15:46:27.511Z,13.00
2018-09-24T15:49:01.048Z,13.00
2018-09-24T15:54:07.886Z,12.90
2018-09-24T15:56:41.415Z,12.80
2018-09-24T16:01:48.591Z,12.70
2018-09-24T16:04:22.042Z,12.70
2018-09-24T16:09:29.042Z,12.50
2018-09-24T16:14:36.523Z,12.40
2018-09-24T16:19:43.636Z,12.10
2018-09-24T16:22:17.135Z,12.00
2018-09-24T16:24:50.682Z,11.90
2018-09-24T16:27:24.338Z,11.80
2018-09-24T16:29:57.854Z,11.70
2018-09-24T16:35:04.846Z,11.50
2018-09-24T16:37:38.465Z,11.40
2018-09-24T16:40:11.919Z,11.40
2018-09-24T16:42:45.455Z,11.40
2018-09-24T16:50:25.939Z,11.30
2018-09-24T16:52:59.479Z,11.20
2018-09-24T16:58:06.411Z,11.10
2018-09-24T17:00:39.942Z,11.00
2018-09-24T17:03:13.442Z,11.00
2018-09-24T17:05:46.906Z,10.90
2018-09-24T17:08:20.442Z,10.90
2018-09-24T17:10:54.039Z,10.80
2018-09-24T17:13:27.585Z,10.80
2018-09-24T17:16:01.167Z,10.80
2018-09-24T17:21:08.008Z,10.70
2018-09-24T17:23:41.521Z,10.60
2018-09-24T17:28:48.399Z,10.40
2018-09-24T17:33:55.559Z,10.20
2018-09-24T17:36:29.128Z,10.10
2018-09-24T17:39:02.654Z,10.00
2018-09-24T17:41:36.164Z,9.90
2018-09-24T17:44:09.739Z,9.80
2018-09-24T17:46:43.258Z,9.70
2018-09-24T17:49:16.762Z,9.60
2018-09-24T17:51:50.256Z,9.60
2018-09-24T17:54:23.858Z,9.50
2018-09-24T17:56:57.454Z,9.40
2018-09-24T17:59:30.993Z,9.30
2018-09-24T18:02:04.461Z,9.20
2018-09-24T18:04:38.036Z,9.00
2018-09-24T18:07:11.602Z,8.90
2018-09-24T18:12:18.603Z,8.80
2018-09-24T18:17:25.623Z,8.80
2018-09-24T18:25:06.234Z,8.60
2018-09-24T18:30:13.082Z,8.50
2018-09-24T18:32:46.691Z,8.50
2018-09-24T18:35:20.231Z,8.50
2018-09-24T18:37:53.803Z,8.50
2018-09-24T18:43:00.915Z,8.60
2018-09-24T18:48:08.029Z,8.70
2018-09-24T18:50:41.622Z,8.70
2018-09-24T18:53:15.107Z,8.70
2018-09-24T18:58:22.127Z,8.70
2018-09-24T19:00:55.698Z,8.60
2018-09-24T19:03:29.211Z,8.60
2018-09-24T19:06:02.751Z,8.70
2018-09-24T19:13:43.203Z,8.60
2018-09-24T19:18:50.331Z,8.50
2018-09-24T19:21:24.019Z,8.40
2018-09-24T19:23:57.562Z,8.50
2018-09-24T19:26:31.119Z,8.40
2018-09-24T19:31:38.001Z,8.40
2018-09-24T19:36:45.254Z,8.10
2018-09-24T19:39:18.730Z,8.00
2018-09-24T19:41:52.394Z,7.90
2018-09-24T19:44:25.911Z,7.90
2018-09-24T19:46:59.608Z,7.90
2018-09-24T19:49:33.099Z,7.90
2018-09-24T19:54:39.703Z,7.80
2018-09-24T19:57:13.365Z,7.80
2018-09-24T19:59:46.943Z,7.70
2018-09-24T20:02:20.550Z,7.80
2018-09-24T20:07:27.608Z,7.80
2018-09-24T20:10:01.196Z,7.80
2018-09-24T20:12:34.798Z,7.80
2018-09-24T20:17:41.896Z,7.80
2018-09-24T20:20:15.415Z,7.70
2018-09-24T20:25:22.323Z,7.70
2018-09-24T20:27:56.002Z,7.70
2018-09-24T20:30:29.574Z,7.70
2018-09-24T20:33:03.106Z,7.60
2018-09-24T20:35:36.604Z,7.60
2018-09-24T20:38:10.203Z,7.50
2018-09-24T20:40:43.939Z,7.50
2018-09-24T20:43:17.592Z,7.50
2018-09-24T20:45:51.108Z,7.50
2018-09-24T20:50:58.079Z,7.50
2018-09-24T20:58:38.867Z,7.70
2018-09-24T21:01:12.792Z,7.80
2018-09-24T21:03:46.447Z,7.80
2018-09-24T21:06:20.127Z,7.90
2018-09-24T21:08:53.782Z,7.90
2018-09-24T21:11:34.251Z,7.90
2018-09-24T21:14:07.800Z,7.90
2018-09-24T21:16:41.358Z,7.90
2018-09-24T21:19:14.894Z,7.90
2018-09-24T21:24:21.762Z,7.90
2018-09-24T21:26:55.294Z,8.00
2018-09-24T21:29:28.834Z,8.10
2018-09-24T21:32:02.406Z,8.10
2018-09-24T21:34:35.940Z,8.10
2018-09-24T21:37:09.510Z,8.10
2018-09-24T21:39:42.976Z,8.10
2018-09-24T21:42:16.564Z,8.10
2018-09-24T21:44:50.090Z,8.10
2018-09-24T21:47:23.733Z,7.90
2018-09-24T21:49:57.361Z,7.80
2018-09-24T21:57:37.835Z,7.40
2018-09-24T22:05:18.263Z,7.10
2018-09-24T22:07:51.831Z,7.10
2018-09-24T22:10:26.432Z,7.00
2018-09-24T22:12:59.987Z,7.00
2018-09-24T22:15:33.515Z,6.90
2018-09-24T22:18:07.057Z,6.80
2018-09-24T22:23:14.274Z,6.70
2018-09-24T22:25:47.756Z,6.70
2018-09-24T22:28:23.309Z,6.70
2018-09-24T22:33:30.705Z,6.80
2018-09-24T22:36:04.200Z,6.90
2018-09-24T22:38:37.698Z,6.90
2018-09-24T22:41:12.407Z,6.80
2018-09-24T22:43:45.870Z,6.80
2018-09-24T22:46:19.487Z,6.80
2018-09-24T22:54:00.010Z,6.90
2018-09-24T22:56:33.563Z,7.00
2018-09-24T23:01:40.472Z,6.90
2018-09-24T23:04:14.134Z,6.90
2018-09-24T23:06:47.687Z,6.90
2018-09-24T23:09:21.251Z,6.80
2018-09-24T23:11:54.809Z,6.80
2018-09-24T23:17:01.775Z,6.80
2018-09-24T23:19:35.325Z,6.90
2018-09-24T23:24:42.374Z,6.80
2018-09-24T23:27:15.883Z,6.80
2018-09-24T23:29:49.414Z,6.80
2018-09-24T23:32:22.969Z,6.80
2018-09-24T23:34:56.637Z,6.80
2018-09-24T23:46:09.284Z,6.60
2018-09-24T23:51:27.858Z,6.40
2018-09-24T23:54:01.414Z,6.40
2018-09-24T23:59:08.475Z,6.20
